createdAt,value
2017-09-08T00:00:32.785Z,13.11
2017-09-08T00:01:42.716Z,13.03
2017-09-08T00:02:52.958Z,13.02
2017-09-08T00:04:02.908Z,13.01
2017-09-08T00:05:13.404Z,12.94
2017-09-08T00:06:23.341Z,13.03
2017-09-08T00:07:33.604Z,12.93
2017-09-08T00:08:43.691Z,12.95
2017-09-08T00:09:53.628Z,12.94
2017-09-08T00:11:03.818Z,12.91
2017-09-08T00:12:14.072Z,12.91
2017-09-08T00:13:24.006Z,12.84
2017-09-08T00:14:33.949Z,12.84
2017-09-08T00:15:44.204Z,12.93
2017-09-08T00:16:54.389Z,12.87
2017-09-08T00:18:04.643Z,12.98
2017-09-08T00:19:14.897Z,12.83
2017-09-08T00:20:25.161Z,12.91
2017-09-08T00:21:35.406Z,12.87
2017-09-08T00:22:45.966Z,12.83
2017-09-08T00:23:56.231Z,12.81
2017-09-08T00:25:06.491Z,12.75
2017-09-08T00:26:16.745Z,12.8
2017-09-08T00:27:27.092Z,12.76
2017-09-08T00:28:36.969Z,12.75
2017-09-08T00:29:47.227Z,12.73
2017-09-08T00:30:57.477Z,12.73
2017-09-08T00:32:07.723Z,12.78
2017-09-08T00:33:17.983Z,12.73
2017-09-08T00:34:28.479Z,12.68
2017-09-08T00:35:38.739Z,12.66
2017-09-08T00:36:48.982Z,12.65
2017-09-08T00:37:59.227Z,12.76
2017-09-08T00:39:09.479Z,12.73
2017-09-08T00:40:19.355Z,12.66
2017-09-08T00:41:29.293Z,12.73
2017-09-08T00:42:39.220Z,12.76
2017-09-08T00:43:49.483Z,12.72
2017-09-08T00:44:59.424Z,12.73
2017-09-08T00:46:09.926Z,12.78
2017-09-08T00:47:20.173Z,12.69
2017-09-08T00:48:29.790Z,12.73
2017-09-08T00:49:39.732Z,12.73
2017-09-08T00:50:49.985Z,12.72
2017-09-08T00:52:00.173Z,12.68
2017-09-08T00:53:10.112Z,12.66
2017-09-08T00:54:20.411Z,12.62
2017-09-08T00:55:30.657Z,12.61
2017-09-08T00:56:40.916Z,12.61
2017-09-08T00:57:51.424Z,12.63
2017-09-08T00:59:01.055Z,12.48
2017-09-08T01:00:11.304Z,12.48
2017-09-08T01:01:21.576Z,12.47
2017-09-08T01:02:31.830Z,12.45
2017-09-08T01:03:42.327Z,12.48
2017-09-08T01:04:52.573Z,12.55
2017-09-08T01:06:02.509Z,12.53
2017-09-08T01:07:12.473Z,12.5
2017-09-08T01:08:22.733Z,12.44
2017-09-08T01:09:33.236Z,12.47
2017-09-08T01:10:43.173Z,12.37
2017-09-08T01:11:53.440Z,12.35
2017-09-08T01:13:03.681Z,12.37
2017-09-08T01:14:13.945Z,12.36
2017-09-08T01:15:24.125Z,12.3
2017-09-08T01:16:34.056Z,12.29
2017-09-08T01:17:44.316Z,12.26
2017-09-08T01:18:54.569Z,12.12
2017-09-08T01:20:04.820Z,12.1
2017-09-08T01:21:15.321Z,11.99
2017-09-08T01:22:25.580Z,12.02
2017-09-08T01:23:35.834Z,12
2017-09-08T01:24:46.085Z,11.95
2017-09-08T01:25:56.328Z,11.97
2017-09-08T01:27:06.830Z,11.89
2017-09-08T01:28:17.069Z,11.81
2017-09-08T01:29:27.007Z,11.77
2017-09-08T01:30:36.938Z,11.81
2017-09-08T01:31:47.216Z,11.83
2017-09-08T01:32:57.730Z,11.8
2017-09-08T01:34:07.996Z,11.7
2017-09-08T01:35:18.244Z,11.63
2017-09-08T01:36:28.185Z,11.65
2017-09-08T01:37:38.132Z,11.63
2017-09-08T01:38:48.633Z,11.62
2017-09-08T01:39:58.878Z,11.76
2017-09-08T01:41:08.823Z,11.78
2017-09-08T01:42:19.083Z,11.77
2017-09-08T01:43:29.330Z,11.76
2017-09-08T01:44:39.831Z,11.81
2017-09-08T01:45:49.760Z,11.81
2017-09-08T01:47:00.010Z,11.77
2017-09-08T01:48:09.961Z,11.76
2017-09-08T01:49:20.216Z,11.73
2017-09-08T01:50:30.727Z,11.77
2017-09-08T01:51:40.974Z,11.71
2017-09-08T01:52:51.229Z,11.63
2017-09-08T01:54:01.478Z,11.6
2017-09-08T01:55:11.719Z,11.7
2017-09-08T01:56:22.210Z,11.59
2017-09-08T01:57:32.147Z,11.65
2017-09-08T01:58:42.084Z,11.65
2017-09-08T01:59:52.336Z,11.63
2017-09-08T02:01:02.609Z,11.63
2017-09-08T02:02:13.117Z,11.6
2017-09-08T02:03:23.363Z,11.63
2017-09-08T02:04:32.982Z,11.68
2017-09-08T02:05:43.227Z,11.62
2017-09-08T02:06:53.484Z,11.63
2017-09-08T02:08:03.986Z,11.6
2017-09-08T02:09:14.234Z,11.6
2017-09-08T02:10:24.488Z,11.56
2017-09-08T02:11:34.425Z,11.55
2017-09-08T02:12:44.685Z,11.55
2017-09-08T02:13:55.190Z,11.53
2017-09-08T02:15:05.449Z,11.58
2017-09-08T02:16:15.702Z,11.58
2017-09-08T02:17:25.946Z,11.55
2017-09-08T02:18:36.200Z,11.55
2017-09-08T02:19:46.400Z,11.49
2017-09-08T02:20:56.652Z,11.48
2017-09-08T02:22:06.909Z,11.45
2017-09-08T02:23:17.157Z,11.53
2017-09-08T02:24:27.403Z,11.44
2017-09-08T02:25:37.906Z,11.44
2017-09-08T02:26:48.155Z,11.49
2017-09-08T02:27:58.087Z,11.51
2017-09-08T02:29:08.329Z,11.52
2017-09-08T02:30:18.263Z,11.52
2017-09-08T02:31:28.766Z,11.48
2017-09-08T02:32:38.703Z,11.44
2017-09-08T02:33:48.992Z,11.48
2017-09-08T02:34:59.245Z,11.49
2017-09-08T02:36:09.494Z,11.49
2017-09-08T02:37:19.685Z,11.48
2017-09-08T02:38:29.938Z,11.52
2017-09-08T02:39:39.869Z,11.52
2017-09-08T02:40:49.802Z,11.52
2017-09-08T02:42:00.045Z,11.55
2017-09-08T02:43:10.554Z,11.52
2017-09-08T02:44:20.814Z,11.53
2017-09-08T02:45:31.065Z,11.62
2017-09-08T02:46:41.321Z,11.67
2017-09-08T02:47:51.256Z,11.6
2017-09-08T02:49:01.761Z,11.6
2017-09-08T02:50:12.009Z,11.7
2017-09-08T02:51:22.262Z,11.67
2017-09-08T02:52:32.508Z,11.71
2017-09-08T02:53:42.437Z,11.73
2017-09-08T02:54:52.961Z,11.76
2017-09-08T02:56:02.891Z,11.76
2017-09-08T02:57:13.139Z,11.83
2017-09-08T02:58:23.389Z,11.8
2017-09-08T02:59:33.639Z,11.78
2017-09-08T03:00:43.830Z,11.88
2017-09-08T03:01:53.780Z,11.81
2017-09-08T03:03:03.715Z,11.8
2017-09-08T03:04:13.973Z,11.89
2017-09-08T03:05:24.231Z,11.88
2017-09-08T03:06:34.426Z,11.88
2017-09-08T03:07:44.687Z,11.97
2017-09-08T03:08:54.625Z,11.89
2017-09-08T03:10:04.559Z,11.93
2017-09-08T03:11:14.182Z,11.95
2017-09-08T03:12:24.366Z,11.97
2017-09-08T03:13:34.634Z,11.95
2017-09-08T03:14:44.887Z,11.99
2017-09-08T03:15:55.134Z,12
2017-09-08T03:17:05.385Z,11.97
2017-09-08T03:18:15.872Z,12.02
2017-09-08T03:19:26.126Z,11.99
2017-09-08T03:20:36.384Z,12.03
2017-09-08T03:21:46.643Z,12.08
2017-09-08T03:22:56.891Z,12
2017-09-08T03:24:07.398Z,12.05
2017-09-08T03:25:17.652Z,12.08
2017-09-08T03:26:27.576Z,12.2
2017-09-08T03:27:37.198Z,12.17
2017-09-08T03:28:47.445Z,12.2
2017-09-08T03:29:57.621Z,12.15
2017-09-08T03:31:07.885Z,12.17
2017-09-08T03:32:17.504Z,12.12
2017-09-08T03:33:27.438Z,12.21
2017-09-08T03:34:37.696Z,12.15
2017-09-08T03:35:48.206Z,12.25
2017-09-08T03:36:58.459Z,12.26
2017-09-08T03:38:08.708Z,12.21
2017-09-08T03:39:18.652Z,12.14
2017-09-08T03:40:28.590Z,12.26
2017-09-08T03:41:39.105Z,12.17
2017-09-08T03:42:49.350Z,12.18
2017-09-08T03:43:59.279Z,12.18
2017-09-08T03:45:09.526Z,12.21
2017-09-08T03:46:19.770Z,12.2
2017-09-08T03:47:30.281Z,12.18
2017-09-08T03:48:40.225Z,12.2
2017-09-08T03:49:50.157Z,12.25
2017-09-08T03:51:00.405Z,12.29
2017-09-08T03:52:10.664Z,12.23
2017-09-08T03:53:21.166Z,12.33
2017-09-08T03:54:30.814Z,12.33
2017-09-08T03:55:40.761Z,12.3
2017-09-08T03:56:51.006Z,12.36
2017-09-08T03:58:00.947Z,12.37
2017-09-08T03:59:11.128Z,12.4
2017-09-08T04:00:21.375Z,12.37
2017-09-08T04:01:31.309Z,12.37
2017-09-08T04:02:40.930Z,12.32
2017-09-08T04:03:51.189Z,12.35
2017-09-08T04:05:01.736Z,12.35
2017-09-08T04:06:11.980Z,12.33
2017-09-08T04:07:21.915Z,12.33
2017-09-08T04:08:31.841Z,12.35
2017-09-08T04:09:41.811Z,12.29
2017-09-08T04:10:51.992Z,12.37
2017-09-08T04:12:01.938Z,12.36
2017-09-08T04:13:12.184Z,12.37
2017-09-08T04:14:22.442Z,12.37
2017-09-08T04:15:32.688Z,12.44
2017-09-08T04:16:42.560Z,12.36
2017-09-08T04:17:52.815Z,12.36
2017-09-08T04:19:03.057Z,12.35
2017-09-08T04:20:13.009Z,12.43
2017-09-08T04:21:22.968Z,12.4
2017-09-08T04:22:33.476Z,12.44
2017-09-08T04:23:43.732Z,12.43
2017-09-08T04:24:53.666Z,12.45
2017-09-08T04:26:03.600Z,12.39
2017-09-08T04:27:13.235Z,12.48
2017-09-08T04:28:23.420Z,12.55
2017-09-08T04:29:33.677Z,12.45
2017-09-08T04:30:43.935Z,12.48
2017-09-08T04:31:54.185Z,12.48
2017-09-08T04:33:04.436Z,12.47
2017-09-08T04:34:14.935Z,12.5
2017-09-08T04:35:24.877Z,12.48
2017-09-08T04:36:35.132Z,12.4
2017-09-08T04:37:45.394Z,12.44
2017-09-08T04:38:55.082Z,12.45
2017-09-08T04:40:05.584Z,12.44
2017-09-08T04:41:15.525Z,12.47
2017-09-08T04:42:26.042Z,12.45
2017-09-08T04:43:36.297Z,12.45
2017-09-08T04:44:46.547Z,12.44
2017-09-08T04:45:57.052Z,12.45
2017-09-08T04:47:06.997Z,12.45
2017-09-08T04:48:16.624Z,12.45
2017-09-08T04:49:26.867Z,12.4
2017-09-08T04:50:36.812Z,12.4
2017-09-08T04:51:47.308Z,12.37
2017-09-08T04:52:57.252Z,12.47
2017-09-08T04:54:07.531Z,12.43
2017-09-08T04:55:17.157Z,12.45
2017-09-08T04:56:27.096Z,12.53
2017-09-08T04:57:37.603Z,12.48
2017-09-08T04:58:47.546Z,12.45
2017-09-08T04:59:57.476Z,12.5
2017-09-08T05:01:07.728Z,12.45
2017-09-08T05:02:17.990Z,12.53
2017-09-08T05:03:28.484Z,12.45
2017-09-08T05:04:38.428Z,12.5
2017-09-08T05:05:48.361Z,12.51
2017-09-08T05:06:58.301Z,12.53
2017-09-08T05:08:07.289Z,12.51
2017-09-08T05:09:17.792Z,12.53
2017-09-08T05:10:27.720Z,12.53
2017-09-08T05:11:37.653Z,12.45
2017-09-08T05:12:47.907Z,12.48
2017-09-08T05:13:58.163Z,12.51
2017-09-08T05:15:08.356Z,12.51
2017-09-08T05:16:18.607Z,12.51
2017-09-08T05:17:28.870Z,12.48
2017-09-08T05:18:38.805Z,12.66
2017-09-08T05:19:48.120Z,12.54
2017-09-08T05:20:58.622Z,12.58
2017-09-08T05:22:08.869Z,12.53
2017-09-08T05:23:19.116Z,12.53
2017-09-08T05:24:29.363Z,12.47
2017-09-08T05:25:39.619Z,12.48
2017-09-08T05:26:50.143Z,12.51
2017-09-08T05:28:00.396Z,12.5
2017-09-08T05:29:10.334Z,12.53
2017-09-08T05:30:20.584Z,12.55
2017-09-08T05:31:30.516Z,12.47
2017-09-08T05:32:40.699Z,12.58
2017-09-08T05:33:50.637Z,12.62
2017-09-08T05:35:00.891Z,12.48
2017-09-08T05:36:11.148Z,12.53
2017-09-08T05:37:21.405Z,12.63
2017-09-08T05:38:31.905Z,12.63
2017-09-08T05:39:42.170Z,12.53
2017-09-08T05:40:52.102Z,12.58
2017-09-08T05:42:01.401Z,12.61
2017-09-08T05:43:11.645Z,12.68
2017-09-08T05:44:21.838Z,12.61
2017-09-08T05:45:31.780Z,12.62
2017-09-08T05:46:42.028Z,12.66
2017-09-08T05:47:51.957Z,12.63
2017-09-08T05:49:01.904Z,12.61
2017-09-08T05:50:12.428Z,12.69
2017-09-08T05:51:22.059Z,12.69
2017-09-08T05:52:32.350Z,12.66
2017-09-08T05:53:42.341Z,12.7
2017-09-08T05:54:52.593Z,12.7
2017-09-08T05:56:02.779Z,12.69
2017-09-08T05:57:13.030Z,12.63
2017-09-08T05:58:23.283Z,12.58
2017-09-08T05:59:33.581Z,12.63
2017-09-08T06:00:43.830Z,12.62
2017-09-08T06:01:54.341Z,12.62
2017-09-08T06:03:04.617Z,12.62
2017-09-08T06:04:14.561Z,12.51
2017-09-08T06:05:24.842Z,12.63
2017-09-08T06:06:34.792Z,12.66
2017-09-08T06:07:44.982Z,12.65
2017-09-08T06:08:55.251Z,12.68
2017-09-08T06:10:05.200Z,12.73
2017-09-08T06:11:15.172Z,12.66
2017-09-08T06:12:25.428Z,12.73
2017-09-08T06:13:35.612Z,12.73
2017-09-08T06:14:45.563Z,12.75
2017-09-08T06:15:55.852Z,12.75
2017-09-08T06:17:05.802Z,12.75
2017-09-08T06:18:16.051Z,12.83
2017-09-08T06:19:26.238Z,12.76
2017-09-08T06:20:36.505Z,12.83
2017-09-08T06:21:46.462Z,12.75
2017-09-08T06:22:56.403Z,12.87
2017-09-08T06:24:06.652Z,12.91
2017-09-08T06:25:16.859Z,12.95
2017-09-08T06:26:27.126Z,12.95
2017-09-08T06:27:37.405Z,12.87
2017-09-08T06:28:47.667Z,12.87
2017-09-08T06:29:57.930Z,12.88
2017-09-08T06:31:08.131Z,12.94
2017-09-08T06:32:18.400Z,12.99
2017-09-08T06:33:28.663Z,13.01
2017-09-08T06:34:38.905Z,13.02
2017-09-08T06:35:48.850Z,13.05
2017-09-08T06:36:59.043Z,13.13
2017-09-08T06:38:09.297Z,13.11
2017-09-08T06:39:19.250Z,13.17
2017-09-08T06:40:29.202Z,13.19
2017-09-08T06:41:39.151Z,13.24
2017-09-08T06:42:49.672Z,13.21
2017-09-08T06:43:59.624Z,13.24
2017-09-08T06:45:09.552Z,13.21
2017-09-08T06:46:19.821Z,13.2
2017-09-08T06:47:29.442Z,13.24
2017-09-08T06:48:40.001Z,13.31
2017-09-08T06:49:50.284Z,13.3
2017-09-08T06:51:00.565Z,13.36
2017-09-08T06:52:10.821Z,13.27
2017-09-08T06:53:20.442Z,13.3
2017-09-08T06:54:30.947Z,13.33
2017-09-08T06:55:40.892Z,13.28
2017-09-08T06:56:51.134Z,13.3
2017-09-08T06:58:01.387Z,13.36
2017-09-08T06:59:11.643Z,13.46
2017-09-08T07:00:22.156Z,13.42
2017-09-08T07:01:32.427Z,13.42
2017-09-08T07:02:42.705Z,13.54
2017-09-08T07:03:52.963Z,13.49
2017-09-08T07:05:03.222Z,13.52
2017-09-08T07:06:13.737Z,13.61
2017-09-08T07:07:23.696Z,13.61
2017-09-08T07:08:33.646Z,13.62
2017-09-08T07:09:43.920Z,13.58
2017-09-08T07:10:54.202Z,13.64
2017-09-08T07:12:04.399Z,13.68
2017-09-08T07:13:14.670Z,13.71
2017-09-08T07:14:24.928Z,13.65
2017-09-08T07:15:35.232Z,13.73
2017-09-08T07:16:45.506Z,13.71
2017-09-08T07:17:55.697Z,13.73
2017-09-08T07:19:05.966Z,13.76
2017-09-08T07:20:16.257Z,13.79
2017-09-08T07:21:26.532Z,13.85
2017-09-08T07:22:36.482Z,13.93
2017-09-08T07:23:46.993Z,13.94
2017-09-08T07:24:57.259Z,13.97
2017-09-08T07:26:07.545Z,14.01
2017-09-08T07:27:17.819Z,14.03
2017-09-08T07:28:28.075Z,14.03
2017-09-08T07:29:37.946Z,14.16
2017-09-08T07:30:48.195Z,14.16
2017-09-08T07:31:57.820Z,14.11
2017-09-08T07:33:08.070Z,14.22
2017-09-08T07:34:18.020Z,14.2
2017-09-08T07:35:28.525Z,14.26
2017-09-08T07:36:38.775Z,14.3
2017-09-08T07:37:49.075Z,14.49
2017-09-08T07:38:59.328Z,14.45
2017-09-08T07:40:09.270Z,14.51
2017-09-08T07:41:19.481Z,14.55
2017-09-08T07:42:29.769Z,14.56
2017-09-08T07:43:40.049Z,14.59
2017-09-08T07:44:50.310Z,14.58
2017-09-08T07:46:00.258Z,14.62
2017-09-08T07:47:10.816Z,14.62
2017-09-08T07:48:21.095Z,14.59
2017-09-08T07:49:31.349Z,14.68
2017-09-08T07:50:41.296Z,14.73
2017-09-08T07:51:51.564Z,14.74
2017-09-08T07:53:02.084Z,14.81
2017-09-08T07:54:12.024Z,14.86
2017-09-08T07:55:21.977Z,14.87
2017-09-08T07:56:31.591Z,14.87
2017-09-08T07:57:41.855Z,14.96
2017-09-08T07:58:52.100Z,15.02
2017-09-08T08:00:02.040Z,15.14
2017-09-08T08:01:12.310Z,15.08
2017-09-08T08:02:22.586Z,15.15
2017-09-08T08:03:32.851Z,15.19
2017-09-08T08:04:43.379Z,15.12
2017-09-08T08:05:53.689Z,15.17
2017-09-08T08:07:03.366Z,15.23
2017-09-08T08:08:13.633Z,15.27
2017-09-08T08:09:23.895Z,15.36
2017-09-08T08:10:34.404Z,15.39
2017-09-08T08:11:44.398Z,15.3
2017-09-08T08:12:54.364Z,15.41
2017-09-08T08:14:04.658Z,15.44
2017-09-08T08:15:14.625Z,15.39
2017-09-08T08:16:25.148Z,15.47
2017-09-08T08:17:35.442Z,15.45
2017-09-08T08:18:45.730Z,15.48
2017-09-08T08:19:55.687Z,15.45
2017-09-08T08:21:05.670Z,15.5
2017-09-08T08:22:16.178Z,15.48
2017-09-08T08:23:25.804Z,15.47
2017-09-08T08:24:36.077Z,15.54
2017-09-08T08:25:46.035Z,15.59
2017-09-08T08:26:56.326Z,15.57
2017-09-08T08:28:06.528Z,15.57
2017-09-08T08:29:16.805Z,15.57
2017-09-08T08:30:27.083Z,15.52
2017-09-08T08:31:37.361Z,15.51
2017-09-08T08:32:47.634Z,15.51
2017-09-08T08:33:58.193Z,15.5
2017-09-08T08:35:08.462Z,15.48
2017-09-08T08:36:18.413Z,15.55
2017-09-08T08:37:28.664Z,15.52
2017-09-08T08:38:38.943Z,15.51
2017-09-08T08:39:49.138Z,15.51
2017-09-08T08:40:59.268Z,15.52
2017-09-08T08:42:09.560Z,15.48
2017-09-08T08:43:19.512Z,15.51
2017-09-08T08:44:29.780Z,15.5
2017-09-08T08:45:40.337Z,15.43
2017-09-08T08:46:50.609Z,15.55
2017-09-08T08:48:00.877Z,15.45
2017-09-08T08:49:11.172Z,15.43
2017-09-08T08:50:21.456Z,15.39
2017-09-08T08:51:31.972Z,15.44
2017-09-08T08:52:42.253Z,15.37
2017-09-08T08:53:52.521Z,15.51
2017-09-08T08:55:02.738Z,15.51
2017-09-08T08:56:13.002Z,15.44
2017-09-08T08:57:23.548Z,15.45
2017-09-08T08:58:33.818Z,15.43
2017-09-08T08:59:44.097Z,15.47
2017-09-08T09:00:54.358Z,15.47
2017-09-08T09:02:04.620Z,15.41
2017-09-08T09:03:14.825Z,15.48
2017-09-08T09:04:25.106Z,15.51
2017-09-08T09:05:35.355Z,15.45
2017-09-08T09:06:45.615Z,15.63
2017-09-08T09:07:55.873Z,15.55
2017-09-08T09:09:06.432Z,15.59
2017-09-08T09:10:16.407Z,15.69
2017-09-08T09:11:26.368Z,15.72
2017-09-08T09:12:36.319Z,15.8
2017-09-08T09:13:46.592Z,15.73
2017-09-08T09:14:57.101Z,15.78
2017-09-08T09:16:07.033Z,15.75
2017-09-08T09:17:17.314Z,15.85
2017-09-08T09:18:26.981Z,15.83
2017-09-08T09:19:36.936Z,15.85
2017-09-08T09:20:47.438Z,15.88
2017-09-08T09:21:57.390Z,15.85
2017-09-08T09:23:07.018Z,15.88
2017-09-08T09:24:17.271Z,15.87
2017-09-08T09:25:27.218Z,15.98
2017-09-08T09:26:37.791Z,15.91
2017-09-08T09:27:48.046Z,15.99
2017-09-08T09:28:57.991Z,15.94
2017-09-08T09:30:08.267Z,15.99
2017-09-08T09:31:18.217Z,16.06
2017-09-08T09:32:28.741Z,16.03
2017-09-08T09:33:38.680Z,16.09
2017-09-08T09:34:48.632Z,16.09
2017-09-08T09:35:58.921Z,16.13
2017-09-08T09:37:09.187Z,16.21
2017-09-08T09:38:19.727Z,16.29
2017-09-08T09:39:29.968Z,16.31
2017-09-08T09:40:39.945Z,16.32
2017-09-08T09:41:50.210Z,16.34
2017-09-08T09:43:00.460Z,16.34
2017-09-08T09:44:10.701Z,16.37
2017-09-08T09:45:20.960Z,16.43
2017-09-08T09:46:31.240Z,16.41
2017-09-08T09:47:41.530Z,16.4
2017-09-08T09:48:51.461Z,16.44
2017-09-08T09:50:01.650Z,16.46
2017-09-08T09:51:11.903Z,16.44
2017-09-08T09:52:22.159Z,16.43
2017-09-08T09:53:32.457Z,16.47
2017-09-08T09:54:42.760Z,16.47
2017-09-08T09:55:53.294Z,16.58
2017-09-08T09:57:03.550Z,16.58
2017-09-08T09:58:13.815Z,16.51
2017-09-08T09:59:24.076Z,16.55
2017-09-08T10:00:34.044Z,16.58
2017-09-08T10:01:43.974Z,16.47
2017-09-08T10:02:53.909Z,16.64
2017-09-08T10:04:03.879Z,16.51
2017-09-08T10:05:14.132Z,16.58
2017-09-08T10:06:24.409Z,16.69
2017-09-08T10:07:34.954Z,16.55
2017-09-08T10:08:45.206Z,16.62
2017-09-08T10:09:55.190Z,16.61
2017-09-08T10:11:05.180Z,16.65
2017-09-08T10:12:15.458Z,16.66
2017-09-08T10:13:25.985Z,16.65
2017-09-08T10:14:36.266Z,16.68
2017-09-08T10:15:46.531Z,16.58
2017-09-08T10:16:56.781Z,16.65
2017-09-08T10:18:06.741Z,16.61
2017-09-08T10:19:17.298Z,16.68
2017-09-08T10:20:27.578Z,16.69
2017-09-08T10:21:37.839Z,16.76
2017-09-08T10:22:47.795Z,16.73
2017-09-08T10:23:58.076Z,16.82
2017-09-08T10:25:07.997Z,16.86
2017-09-08T10:26:18.270Z,16.91
2017-09-08T10:27:28.552Z,16.84
2017-09-08T10:28:38.844Z,16.91
2017-09-08T10:29:48.489Z,16.92
2017-09-08T10:30:58.693Z,16.98
2017-09-08T10:32:08.961Z,17.07
2017-09-08T10:33:19.218Z,17.01
2017-09-08T10:34:29.486Z,17.05
2017-09-08T10:35:39.141Z,17.04
2017-09-08T10:36:49.649Z,17.07
2017-09-08T10:37:59.604Z,17.05
2017-09-08T10:39:09.852Z,17.09
2017-09-08T10:40:19.800Z,17.13
2017-09-08T10:41:30.039Z,17.14
2017-09-08T10:42:40.556Z,17.12
2017-09-08T10:43:50.835Z,17.22
2017-09-08T10:45:01.095Z,17.22
2017-09-08T10:46:11.373Z,17.28
2017-09-08T10:47:21.672Z,17.23
2017-09-08T10:48:31.884Z,17.34
2017-09-08T10:49:42.200Z,17.24
2017-09-08T10:50:52.165Z,17.27
2017-09-08T10:52:02.428Z,17.27
2017-09-08T10:53:11.919Z,17.27
2017-09-08T10:54:22.122Z,17.31
2017-09-08T10:55:32.376Z,17.38
2017-09-08T10:56:42.650Z,17.5
2017-09-08T10:57:52.921Z,17.49
2017-09-08T10:59:02.875Z,17.5
2017-09-08T11:00:13.270Z,17.57
2017-09-08T11:01:22.586Z,17.52
2017-09-08T11:02:32.849Z,17.56
2017-09-08T11:03:43.148Z,17.68
2017-09-08T11:04:53.419Z,17.68
2017-09-08T11:06:03.986Z,17.73
2017-09-08T11:07:13.935Z,17.84
2017-09-08T11:08:24.226Z,17.91
2017-09-08T11:09:34.498Z,17.88
2017-09-08T11:10:44.217Z,17.93
2017-09-08T11:11:54.737Z,17.97
2017-09-08T11:13:04.991Z,17.94
2017-09-08T11:14:15.258Z,18.02
2017-09-08T11:15:25.216Z,17.95
2017-09-08T11:16:35.486Z,18
2017-09-08T11:17:45.995Z,18.08
2017-09-08T11:18:56.289Z,18.03
2017-09-08T11:20:06.559Z,18.02
2017-09-08T11:21:16.851Z,18.09
2017-09-08T11:22:27.133Z,18.02
2017-09-08T11:23:37.663Z,18.05
2017-09-08T11:24:47.943Z,17.97
2017-09-08T11:25:58.199Z,18.05
2017-09-08T11:27:08.473Z,17.93
2017-09-08T11:28:18.765Z,18
2017-09-08T11:29:29.304Z,18.02
2017-09-08T11:30:39.596Z,18.08
2017-09-08T11:31:49.889Z,18.05
2017-09-08T11:33:00.166Z,18.16
2017-09-08T11:34:10.436Z,18.12
2017-09-08T11:35:20.983Z,18.05
2017-09-08T11:36:31.255Z,18.08
2017-09-08T11:37:41.213Z,18.11
2017-09-08T11:38:51.496Z,18.12
2017-09-08T11:40:01.458Z,18.24
2017-09-08T11:41:11.972Z,18.24
2017-09-08T11:42:22.246Z,18.33
2017-09-08T11:43:32.197Z,18.27
2017-09-08T11:44:42.463Z,18.23
2017-09-08T11:45:52.724Z,18.26
2017-09-08T11:47:03.232Z,18.21
2017-09-08T11:48:13.485Z,18.21
2017-09-08T11:49:23.757Z,18.13
2017-09-08T11:50:34.037Z,18.15
2017-09-08T11:51:43.662Z,18.06
2017-09-08T11:52:54.216Z,18.15
2017-09-08T11:54:04.480Z,18.26
2017-09-08T11:55:14.775Z,18.28
2017-09-08T11:56:25.039Z,18.28
2017-09-08T11:57:34.676Z,18.23
2017-09-08T11:58:45.188Z,18.18
2017-09-08T11:59:55.477Z,18.27
2017-09-08T12:01:05.745Z,18.3
2017-09-08T12:02:16.002Z,18.26
2017-09-08T12:03:26.009Z,18.16
2017-09-08T12:04:36.524Z,18.19
2017-09-08T12:05:46.833Z,18.09
2017-09-08T12:06:56.811Z,18.09
2017-09-08T12:08:06.769Z,18.13
2017-09-08T12:09:17.057Z,18.12
2017-09-08T12:10:27.589Z,18.13
2017-09-08T12:11:37.889Z,18.15
2017-09-08T12:12:48.186Z,18.08
2017-09-08T12:13:58.448Z,18.16
2017-09-08T12:15:08.435Z,18.11
2017-09-08T12:16:18.718Z,18.13
2017-09-08T12:17:28.358Z,18.05
2017-09-08T12:18:38.852Z,18.02
2017-09-08T12:19:48.805Z,18.15
2017-09-08T12:20:59.079Z,18.12
2017-09-08T12:22:09.590Z,18.09
2017-09-08T12:23:19.606Z,18.08
2017-09-08T12:24:29.609Z,18.03
2017-09-08T12:25:39.894Z,18.02
2017-09-08T12:26:50.160Z,18.05
2017-09-08T12:28:00.674Z,18
2017-09-08T12:29:10.635Z,17.98
2017-09-08T12:30:20.572Z,17.94
2017-09-08T12:31:30.849Z,17.95
2017-09-08T12:32:41.126Z,17.94
2017-09-08T12:33:51.315Z,17.94
2017-09-08T12:35:01.581Z,17.93
2017-09-08T12:36:11.850Z,17.91
2017-09-08T12:37:21.819Z,17.91
2017-09-08T12:38:31.763Z,17.95
2017-09-08T12:39:42.278Z,17.94
2017-09-08T12:40:52.551Z,17.9
2017-09-08T12:42:02.819Z,17.87
2017-09-08T12:43:13.084Z,17.82
2017-09-08T12:44:23.038Z,17.8
2017-09-08T12:45:32.930Z,17.79
2017-09-08T12:46:43.206Z,17.75
2017-09-08T12:47:53.505Z,17.75
2017-09-08T12:49:03.773Z,17.72
2017-09-08T12:50:14.035Z,17.78
2017-09-08T12:51:24.584Z,17.72
2017-09-08T12:52:34.856Z,17.66
2017-09-08T12:53:45.122Z,17.68
2017-09-08T12:54:55.405Z,17.69
2017-09-08T12:56:05.371Z,17.68
2017-09-08T12:57:15.590Z,17.68
2017-09-08T12:58:24.896Z,17.69
2017-09-08T12:59:34.877Z,17.68
2017-09-08T13:00:44.819Z,17.65
2017-09-08T13:01:55.076Z,17.65
2017-09-08T13:03:05.279Z,17.6
2017-09-08T13:04:15.547Z,17.57
2017-09-08T13:05:25.805Z,17.66
2017-09-08T13:06:36.058Z,17.6
2017-09-08T13:07:46.016Z,17.59
2017-09-08T13:08:55.905Z,17.68
2017-09-08T13:10:06.163Z,17.65
2017-09-08T13:11:16.422Z,17.59
2017-09-08T13:12:26.367Z,17.65
2017-09-08T13:13:36.640Z,17.65
2017-09-08T13:14:47.203Z,17.65
2017-09-08T13:15:57.476Z,17.59
2017-09-08T13:17:07.415Z,17.6
2017-09-08T13:18:17.057Z,17.5
2017-09-08T13:19:27.000Z,17.52
2017-09-08T13:20:37.502Z,17.49
2017-09-08T13:21:47.403Z,17.34
2017-09-08T13:22:57.048Z,17.31
2017-09-08T13:24:06.971Z,17.27
2017-09-08T13:25:16.648Z,17.23
2017-09-08T13:26:26.856Z,17.24
2017-09-08T13:27:37.128Z,17.24
2017-09-08T13:28:47.066Z,17.17
2017-09-08T13:29:57.335Z,17.22
2017-09-08T13:31:07.288Z,17.2
2017-09-08T13:32:17.809Z,17.16
2017-09-08T13:33:28.057Z,17.23
2017-09-08T13:34:37.995Z,17.14
2017-09-08T13:35:48.246Z,17.07
2017-09-08T13:36:57.913Z,17.12
2017-09-08T13:38:07.472Z,17.17
2017-09-08T13:39:17.768Z,17.05
2017-09-08T13:40:27.705Z,17.13
2017-09-08T13:41:37.952Z,17.12
2017-09-08T13:42:48.221Z,17.05
2017-09-08T13:43:58.743Z,17.01
2017-09-08T13:45:08.998Z,17.13
2017-09-08T13:46:19.255Z,16.97
2017-09-08T13:47:29.204Z,16.98
2017-09-08T13:48:39.466Z,16.98
2017-09-08T13:49:49.335Z,17.07
2017-09-08T13:50:59.673Z,17.05
2017-09-08T13:52:09.603Z,16.95
2017-09-08T13:53:19.541Z,17.12
2017-09-08T13:54:29.471Z,17.09
2017-09-08T13:55:39.972Z,17.12
2017-09-08T13:56:49.934Z,17.09
2017-09-08T13:57:59.869Z,17.1
2017-09-08T13:59:10.142Z,17.14
2017-09-08T14:00:20.425Z,17.1
2017-09-08T14:01:30.935Z,17.14
2017-09-08T14:02:40.890Z,17.19
2017-09-08T14:03:50.820Z,17.1
2017-09-08T14:05:00.759Z,17.09
2017-09-08T14:06:11.035Z,17.05
2017-09-08T14:07:21.226Z,17.1
2017-09-08T14:08:31.502Z,17.12
2017-09-08T14:09:41.767Z,17.17
2017-09-08T14:10:52.019Z,17.09
2017-09-08T14:12:02.298Z,17.04
2017-09-08T14:13:12.813Z,17.01
2017-09-08T14:14:23.052Z,16.99
2017-09-08T14:15:33.309Z,16.94
2017-09-08T14:16:43.263Z,16.91
2017-09-08T14:17:53.526Z,16.8
2017-09-08T14:19:04.029Z,16.73
2017-09-08T14:20:14.289Z,16.8
2017-09-08T14:21:24.545Z,16.76
2017-09-08T14:22:34.498Z,16.79
2017-09-08T14:23:44.770Z,16.74
2017-09-08T14:24:55.277Z,16.76
2017-09-08T14:26:05.529Z,16.77
2017-09-08T14:27:15.467Z,16.76
2017-09-08T14:28:25.744Z,16.8
2017-09-08T14:29:36.012Z,16.79
2017-09-08T14:30:46.531Z,16.76
2017-09-08T14:31:56.796Z,16.83
2017-09-08T14:33:06.748Z,16.8
2017-09-08T14:34:16.996Z,16.91
2017-09-08T14:35:26.940Z,16.86
2017-09-08T14:36:37.452Z,16.89
2017-09-08T14:37:47.379Z,16.95
2017-09-08T14:38:57.330Z,16.95
2017-09-08T14:40:07.591Z,16.95
2017-09-08T14:41:17.852Z,17.07
2017-09-08T14:42:28.356Z,17.05
2017-09-08T14:43:38.612Z,16.97
2017-09-08T14:44:48.871Z,17.09
2017-09-08T14:45:58.816Z,17.12
2017-09-08T14:47:09.065Z,17.04
2017-09-08T14:48:19.261Z,17.05
2017-09-08T14:49:29.201Z,17.14
2017-09-08T14:50:39.461Z,17.13
2017-09-08T14:51:49.738Z,17.07
2017-09-08T14:52:59.368Z,17.23
2017-09-08T14:54:09.957Z,17.16
2017-09-08T14:55:20.229Z,17.12
2017-09-08T14:56:30.491Z,17.19
2017-09-08T14:57:40.752Z,17.22
2017-09-08T14:58:50.387Z,17.23
2017-09-08T15:00:00.581Z,17.23
2017-09-08T15:01:10.517Z,17.24
2017-09-08T15:02:20.456Z,17.24
2017-09-08T15:03:30.721Z,17.19
2017-09-08T15:04:40.661Z,17.23
2017-09-08T15:05:51.181Z,17.23
2017-09-08T15:07:01.450Z,17.24